Time;durP1;ratioP1;P1;durP2;ratioP2;P2;SDS_P1;SDS_P2;PMS_P1;PMS_P2;Temp;Humidity;BMP_temperature;BMP_pressure;BME280_temperature;BME280_humidity;BME280_pressure;Samples;Min_cycle;Max_cycle;Signal;HPM_P1;HPM_P2
2022/08/15 00:00:13;;;;;;;;;;;;;;;16.91;93.95;94579.41;5155299;27;999;-48
2022/08/15 00:02:40;;;;;;;;;;;;;;;16.94;94.15;94581.72;5155462;27;1042;-48
2022/08/15 00:05:06;;;;;;;;;;;;;;;16.98;94.89;94584.81;5155462;27;991;-48
2022/08/15 00:07:32;;;;;;;;;;;;;;;16.95;94.31;94586.03;5154406;27;980;-49
2022/08/15 00:09:58;;;;;;;;;;;;;;;16.82;92.35;94591.50;5155366;27;961;-49
2022/08/15 00:12:24;;;;;;;;;;;;;;;16.65;93.64;94588.41;5155274;27;1887;-49
2022/08/15 00:14:52;;;;;;;;;;;;;;;16.58;93.88;94591.16;5155110;27;1988;-49
2022/08/15 00:17:20;;;;;;;;;;;;;;;16.65;93.68;94593.00;5155184;27;1040;-49
2022/08/15 00:19:49;;;;;;;;;;;;;;;16.66;93.77;94592.78;5155050;27;1107;-49
2022/08/15 00:22:18;;;;;;;;;;;;;;;16.65;93.41;94591.09;5155299;27;960;-49
2022/08/15 00:24:46;;;;;;;;;;;;;;;16.67;93.29;94591.72;5155169;27;1042;-49
2022/08/15 00:27:11;;;;;;;;;;;;;;;16.54;92.28;94589.06;5155142;27;1141;-48
2022/08/15 00:29:38;;;;;;;;;;;;;;;16.38;92.93;94587.66;5155051;27;1083;-48
2022/08/15 00:32:11;;;;;;;;;;;;;;;16.36;93.61;94589.75;5155059;27;932;-48
2022/08/15 00:34:37;;;;;;;;;;;;;;;16.39;94.07;94600.94;5154979;27;1901;-47
2022/08/15 00:37:05;;;;;;;;;;;;;;;16.32;93.94;94604.69;5154926;27;1112;-48
2022/08/15 00:39:32;;;;;;;;;;;;;;;16.33;93.92;94598.25;5155116;27;968;-47
2022/08/15 00:42:00;;;;;;;;;;;;;;;16.39;93.18;94597.44;5154628;27;1305;-49
2022/08/15 00:44:26;;;;;;;;;;;;;;;16.35;92.78;94591.63;5148305;27;1610;-49
2022/08/15 00:46:57;;;;;;;;;;;;;;;16.30;93.30;94593.28;5175344;27;1091;-49
2022/08/15 00:49:24;;;;;;;;;;;;;;;16.37;93.06;94594.09;5175843;27;1020;-49
2022/08/15 00:51:50;;;;;;;;;;;;;;;16.27;92.92;94597.22;5175577;27;1099;-49
2022/08/15 00:54:19;;;;;;;;;;;;;;;16.11;92.96;94601.19;5175505;27;2357;-49
2022/08/15 00:57:05;;;;;;;;;;;;;;;16.10;93.60;94599.50;5175505;27;1023;-49
2022/08/15 00:59:34;;;;;;;;;;;;;;;16.14;93.77;94606.19;5175560;27;1282;-49
2022/08/15 01:02:02;;;;;;;;;;;;;;;16.17;93.83;94603.03;5175587;27;973;-49
2022/08/15 01:04:28;;;;;;;;;;;;;;;16.17;93.99;94602.22;5175698;27;1023;-49
2022/08/15 01:06:58;;;;;;;;;;;;;;;16.19;94.24;94597.44;5175440;27;1054;-48
2022/08/15 01:09:25;;;;;;;;;;;;;;;16.19;93.72;94597.44;5175394;27;1048;-49
2022/08/15 01:12:01;;;;;;;;;;;;;;;16.02;93.73;94597.03;5175737;27;999;-48
2022/08/15 01:14:28;;;;;;;;;;;;;;;15.96;93.94;94598.69;5175680;27;1933;-48
2022/08/15 01:16:54;;;;;;;;;;;;;;;16.03;94.17;94596.00;5175292;27;1035;-48
2022/08/15 01:19:20;;;;;;;;;;;;;;;16.06;95.14;94592.06;5175364;27;1028;-49
2022/08/15 01:21:54;;;;;;;;;;;;;;;16.10;95.34;94594.13;5175245;27;973;-49
2022/08/15 01:24:39;;;;;;;;;;;;;;;16.23;94.00;94592.47;5175591;27;1036;-48
2022/08/15 01:27:05;;;;;;;;;;;;;;;16.11;93.47;94595.78;5175351;27;1003;-48
2022/08/15 01:29:31;;;;;;;;;;;;;;;16.19;92.62;94587.47;5175410;27;1039;-48
2022/08/15 01:31:57;;;;;;;;;;;;;;;16.02;92.94;94588.13;5175176;27;1015;-48
2022/08/15 01:34:23;;;;;;;;;;;;;;;15.76;93.74;94584.38;5175141;27;1905;-48
2022/08/15 01:36:50;;;;;;;;;;;;;;;15.75;94.44;94596.22;5175403;27;1047;-48
2022/08/15 01:39:19;;;;;;;;;;;;;;;15.85;94.98;94596.63;5175400;27;1051;-48
2022/08/15 01:41:52;;;;;;;;;;;;;;;16.01;94.43;94592.66;5174963;27;1979;-48
2022/08/15 01:44:27;;;;;;;;;;;;;;;16.02;94.42;94591.66;5164507;27;1203;-48
2022/08/15 01:46:59;;;;;;;;;;;;;;;16.02;93.42;94599.75;5154065;27;935;-48
2022/08/15 01:49:51;;;;;;;;;;;;;;;16.02;94.42;94610.53;5154229;27;1008;-48
2022/08/15 01:52:19;;;;;;;;;;;;;;;15.85;93.51;94607.41;5149532;27;1220;-48
2022/08/15 01:54:45;;;;;;;;;;;;;;;15.94;93.69;94602.66;5154376;27;1905;-48
2022/08/15 01:57:11;;;;;;;;;;;;;;;16.04;92.87;94610.31;5135645;27;1031;-48
2022/08/15 01:59:38;;;;;;;;;;;;;;;15.97;93.65;94615.69;5157608;27;1008;-48
2022/08/15 02:02:06;;;;;;;;;;;;;;;15.89;93.02;94613.22;5157894;27;972;-48
2022/08/15 02:04:34;;;;;;;;;;;;;;;15.81;94.51;94614.25;5158081;27;948;-48
2022/08/15 02:07:08;;;;;;;;;;;;;;;15.79;93.62;94609.06;5157757;27;1036;-48
2022/08/15 02:09:35;;;;;;;;;;;;;;;15.56;92.11;94612.13;5157893;27;964;-48
2022/08/15 02:12:05;;;;;;;;;;;;;;;15.47;93.66;94620.59;5157456;27;1110;-47
2022/08/15 02:14:31;;;;;;;;;;;;;;;15.49;94.19;94629.31;5157567;27;1905;-48
2022/08/15 02:16:57;;;;;;;;;;;;;;;15.60;94.09;94623.31;5157639;27;944;-48
2022/08/15 02:19:23;;;;;;;;;;;;;;;15.71;93.80;94628.09;5157530;27;1040;-48
2022/08/15 02:21:49;;;;;;;;;;;;;;;15.75;93.63;94634.78;5138967;27;1051;-48
2022/08/15 02:24:17;;;;;;;;;;;;;;;15.70;93.36;94639.91;5157464;27;1103;-47
2022/08/15 02:26:44;;;;;;;;;;;;;;;15.67;92.73;94639.47;5157232;27;1031;-48
2022/08/15 02:29:10;;;;;;;;;;;;;;;15.46;92.83;94641.34;5157567;27;1003;-47
2022/08/15 02:31:37;;;;;;;;;;;;;;;15.31;93.00;94644.19;5157346;27;957;-48
2022/08/15 02:34:04;;;;;;;;;;;;;;;15.23;94.19;94638.97;5157294;27;1914;-48
2022/08/15 02:36:32;;;;;;;;;;;;;;;15.33;93.97;94642.13;5157295;27;1003;-48
2022/08/15 02:38:58;;;;;;;;;;;;;;;15.38;93.78;94650.41;5157178;27;1055;-47
2022/08/15 02:41:28;;;;;;;;;;;;;;;15.42;93.92;94651.69;5156867;27;1111;-48
2022/08/15 02:43:55;;;;;;;;;;;;;;;15.47;93.73;94647.53;5164404;27;1156;-49
2022/08/15 02:46:21;;;;;;;;;;;;;;;15.31;92.28;94638.81;5178054;27;964;-49
2022/08/15 02:48:48;;;;;;;;;;;;;;;15.18;92.83;94647.66;5177709;27;1862;-48
2022/08/15 02:51:14;;;;;;;;;;;;;;;15.17;94.33;94642.47;5177872;27;1083;-48
2022/08/15 02:53:43;;;;;;;;;;;;;;;15.19;93.30;94643.94;5177570;27;987;-48
2022/08/15 02:56:09;;;;;;;;;;;;;;;15.09;93.93;94656.13;5177518;27;1991;-48
2022/08/15 02:58:35;;;;;;;;;;;;;;;15.13;93.76;94663.59;5177699;27;1015;-48
2022/08/15 03:01:08;;;;;;;;;;;;;;;15.14;94.67;94670.66;5177799;27;1055;-48
2022/08/15 03:03:37;;;;;;;;;;;;;;;15.21;94.17;94670.66;5177420;27;1028;-47
2022/08/15 03:06:04;;;;;;;;;;;;;;;15.28;94.79;94662.63;5177395;27;1042;-48
2022/08/15 03:08:30;;;;;;;;;;;;;;;15.40;94.76;94660.97;5177060;27;1031;-48
2022/08/15 03:10:56;;;;;;;;;;;;;;;15.43;94.32;94669.50;5177740;27;1019;-48
2022/08/15 03:13:22;;;;;;;;;;;;;;;15.39;94.44;94678.19;5177299;27;964;-48
2022/08/15 03:15:48;;;;;;;;;;;;;;;15.30;92.81;94684.78;5177268;27;2010;-48
2022/08/15 03:18:15;;;;;;;;;;;;;;;15.20;93.83;94683.31;5177136;27;1023;-48
2022/08/15 03:20:43;;;;;;;;;;;;;;;15.26;94.34;94681.66;5177205;27;1019;-48
2022/08/15 03:23:09;;;;;;;;;;;;;;;15.26;95.07;94684.34;5176918;27;1055;-48
2022/08/15 03:25:40;;;;;;;;;;;;;;;15.29;94.51;94686.66;5177637;27;1039;-48
2022/08/15 03:28:06;;;;;;;;;;;;;;;15.23;94.00;94687.44;5177080;27;964;-48
2022/08/15 03:30:33;;;;;;;;;;;;;;;15.19;92.52;94678.09;5177211;27;1014;-48
2022/08/15 03:32:59;;;;;;;;;;;;;;;15.17;92.90;94682.88;5176913;27;972;-48
2022/08/15 03:35:27;;;;;;;;;;;;;;;15.05;92.01;94679.94;5176861;27;1992;-48
2022/08/15 03:37:53;;;;;;;;;;;;;;;15.06;93.02;94670.78;5177198;27;1031;-48
2022/08/15 03:40:19;;;;;;;;;;;;;;;15.18;93.94;94671.91;5176590;27;1245;-48
2022/08/15 03:42:51;;;;;;;;;;;;;;;15.28;94.50;94674.22;5176782;27;1205;-48
2022/08/15 03:45:18;;;;;;;;;;;;;;;15.43;94.01;94669.50;5157452;27;1184;-49
2022/08/15 03:47:44;;;;;;;;;;;;;;;15.38;93.84;94666.56;5155802;27;1165;-49
2022/08/15 03:50:12;;;;;;;;;;;;;;;15.26;93.07;94673.59;5155760;27;1108;-48
2022/08/15 03:52:55;;;;;;;;;;;;;;;15.27;92.97;94663.63;5155639;27;995;-48
2022/08/15 03:55:21;;;;;;;;;;;;;;;15.29;92.58;94665.13;5155711;27;1991;-48
2022/08/15 03:57:48;;;;;;;;;;;;;;;15.18;92.83;94661.13;5155628;27;1036;-49
2022/08/15 04:00:15;;;;;;;;;;;;;;;15.16;93.69;94662.38;5155595;27;1205;-49
2022/08/15 04:02:41;;;;;;;;;;;;;;;15.38;92.64;94658.47;5155576;27;929;-48
2022/08/15 04:05:08;;;;;;;;;;;;;;;15.40;93.32;94661.84;5155282;27;987;-48
2022/08/15 04:07:36;;;;;;;;;;;;;;;15.38;93.08;94666.56;5155471;27;1016;-47
2022/08/15 04:10:06;;;;;;;;;;;;;;;15.39;94.07;94672.81;5155276;27;1015;-47
2022/08/15 04:12:35;;;;;;;;;;;;;;;15.59;94.38;94681.78;5155569;27;984;-48
2022/08/15 04:15:02;;;;;;;;;;;;;;;15.53;93.38;94677.19;5155205;27;1909;-48
2022/08/15 04:17:28;;;;;;;;;;;;;;;15.43;93.56;94679.44;5155276;27;1035;-48
2022/08/15 04:19:54;;;;;;;;;;;;;;;15.33;93.58;94687.91;5155279;27;1016;-48
2022/08/15 04:22:28;;;;;;;;;;;;;;;15.41;93.05;94681.50;5154651;27;1000;-48
2022/08/15 04:24:58;;;;;;;;;;;;;;;15.37;94.52;94682.97;5155011;27;1035;-48
2022/08/15 04:27:24;;;;;;;;;;;;;;;15.51;94.55;94684.63;5155229;27;1107;-48
2022/08/15 04:29:50;;;;;;;;;;;;;;;15.64;94.24;94696.50;5154957;27;1007;-48
2022/08/15 04:32:24;;;;;;;;;;;;;;;15.87;93.57;94705.06;5154867;27;2002;-48
2022/08/15 04:34:50;;;;;;;;;;;;;;;16.04;93.78;94712.78;5155054;27;1980;-48
2022/08/15 04:37:16;;;;;;;;;;;;;;;16.12;93.89;94713.41;5154916;27;1095;-48
2022/08/15 04:39:42;;;;;;;;;;;;;;;16.19;94.33;94708.84;5154868;27;1016;-48
2022/08/15 04:42:08;;;;;;;;;;;;;;;16.25;94.32;94714.47;5154763;27;1950;-48
2022/08/15 04:44:39;;;;;;;;;;;;;;;16.30;94.04;94711.97;5167590;27;1200;-48
2022/08/15 04:47:05;;;;;;;;;;;;;;;16.41;94.37;94708.66;5175950;27;1047;-48
2022/08/15 04:49:32;;;;;;;;;;;;;;;16.56;93.59;94711.97;5175610;27;1036;-48
2022/08/15 04:52:08;;;;;;;;;;;;;;;16.65;93.26;94709.03;5175749;27;993;-48
2022/08/15 04:54:34;;;;;;;;;;;;;;;16.65;92.65;94709.88;5175509;27;1909;-48
2022/08/15 04:57:00;;;;;;;;;;;;;;;16.67;92.94;94706.97;5175766;27;1018;-48
2022/08/15 04:59:27;;;;;;;;;;;;;;;16.76;93.66;94703.00;5175365;27;1106;-48
2022/08/15 05:01:53;;;;;;;;;;;;;;;16.79;93.93;94710.69;5175869;27;1031;-48
2022/08/15 05:04:44;;;;;;;;;;;;;;;17.03;93.00;94713.78;5175736;27;968;-48
2022/08/15 05:07:10;;;;;;;;;;;;;;;17.06;92.45;94718.78;5175684;27;957;-48
2022/08/15 05:09:37;;;;;;;;;;;;;;;16.96;91.20;94717.34;5139870;27;1974;-48
2022/08/15 05:12:03;;;;;;;;;;;;;;;17.05;91.51;94725.19;5175629;27;966;-48
2022/08/15 05:14:29;;;;;;;;;;;;;;;17.08;91.57;94722.09;5175587;27;1910;-48
2022/08/15 05:16:55;;;;;;;;;;;;;;;17.12;92.38;94729.53;5175849;27;1063;-48
2022/08/15 05:19:21;;;;;;;;;;;;;;;17.16;91.82;94725.38;5175331;27;1067;-48
2022/08/15 05:21:47;;;;;;;;;;;;;;;17.26;90.85;94727.63;5157068;27;1086;-48
2022/08/15 05:24:13;;;;;;;;;;;;;;;17.28;91.61;94725.56;5175461;27;1003;-47
2022/08/15 05:26:40;;;;;;;;;;;;;;;17.43;90.50;94727.97;5156950;27;987;-48
2022/08/15 05:29:06;;;;;;;;;;;;;;;17.79;89.10;94728.44;5175441;27;1015;-48
2022/08/15 05:31:33;;;;;;;;;;;;;;;18.08;86.49;94727.91;5175348;27;1853;-48
2022/08/15 05:34:00;;;;;;;;;;;;;;;18.37;85.97;94732.91;5178139;27;2022;-48
2022/08/15 05:36:27;;;;;;;;;;;;;;;18.92;82.18;94735.81;5143725;27;1664;-48
2022/08/15 05:39:01;;;;;;;;;;;;;;;19.15;81.51;94737.84;5160891;27;1071;-48
2022/08/15 05:41:33;;;;;;;;;;;;;;;19.34;81.65;94738.69;5179056;27;1102;-49
2022/08/15 05:44:05;;;;;;;;;;;;;;;19.25;80.97;94726.50;5171265;27;1948;-48
2022/08/15 05:46:40;;;;;;;;;;;;;;;19.15;78.76;94732.44;5158146;27;1115;-48
2022/08/15 05:49:25;;;;;;;;;;;;;;;19.24;79.88;94727.56;5158308;27;945;-48
2022/08/15 05:51:59;;;;;;;;;;;;;;;19.47;80.35;94732.31;5158188;27;972;-48
2022/08/15 05:54:27;;;;;;;;;;;;;;;19.64;78.68;94730.63;5158243;27;1906;-48
2022/08/15 05:56:53;;;;;;;;;;;;;;;19.81;78.91;94727.31;5157966;27;1044;-48
2022/08/15 05:59:21;;;;;;;;;;;;;;;19.66;79.10;94720.38;5158082;27;984;-48
2022/08/15 06:01:47;;;;;;;;;;;;;;;19.82;80.76;94721.66;5157979;27;1023;-48
2022/08/15 06:04:20;;;;;;;;;;;;;;;19.84;79.51;94721.44;5157922;27;1008;-48
2022/08/15 06:06:50;;;;;;;;;;;;;;;19.93;80.92;94725.47;5158067;27;1054;-48
2022/08/15 06:09:35;;;;;;;;;;;;;;;19.95;80.20;94717.13;5158012;27;999;-48
2022/08/15 06:12:03;;;;;;;;;;;;;;;19.83;83.31;94717.06;5157734;27;1020;-49
2022/08/15 06:14:33;;;;;;;;;;;;;;;20.00;80.00;94720.78;5157742;27;1987;-48
2022/08/15 06:17:12;;;;;;;;;;;;;;;20.04;80.68;94711.13;5157915;27;1063;-49
2022/08/15 06:19:41;;;;;;;;;;;;;;;20.11;80.00;94713.75;5157962;27;1011;-49
2022/08/15 06:22:13;;;;;;;;;;;;;;;20.25;79.71;94711.66;5157385;27;1027;-49
2022/08/15 06:24:46;;;;;;;;;;;;;;;20.40;79.85;94720.19;5157665;27;1035;-49
2022/08/15 06:27:15;;;;;;;;;;;;;;;20.59;76.64;94717.41;5157280;27;984;-48
2022/08/15 06:29:59;;;;;;;;;;;;;;;20.58;78.42;94711.16;5157727;27;961;-49
2022/08/15 06:32:39;;;;;;;;;;;;;;;20.65;76.37;94716.50;5157689;27;1056;-48
2022/08/15 06:35:21;;;;;;;;;;;;;;;20.58;77.74;94713.03;5157360;27;1906;-49
2022/08/15 06:37:52;;;;;;;;;;;;;;;20.81;76.35;94714.97;5157235;27;1843;-49
2022/08/15 06:40:20;;;;;;;;;;;;;;;20.98;75.61;94723.25;5157101;27;1083;-49
2022/08/15 06:42:46;;;;;;;;;;;;;;;21.14;76.19;94714.38;5157340;27;952;-49
2022/08/15 06:45:18;;;;;;;;;;;;;;;21.18;74.94;94710.13;5174990;27;1149;-49
2022/08/15 06:47:45;;;;;;;;;;;;;;;21.18;74.59;94699.25;5177960;27;1004;-48
2022/08/15 06:50:15;;;;;;;;;;;;;;;21.43;74.33;94712.56;5177902;27;1038;-49
2022/08/15 06:52:45;;;;;;;;;;;;;;;21.72;73.69;94712.66;5178017;27;976;-49
2022/08/15 06:55:12;;;;;;;;;;;;;;;21.73;72.75;94711.56;5177782;27;1941;-49
2022/08/15 06:57:50;;;;;;;;;;;;;;;22.00;72.46;94705.56;5177813;27;952;-49
2022/08/15 07:00:28;;;;;;;;;;;;;;;22.18;71.49;94712.72;5177846;27;1031;-48
2022/08/15 07:03:00;;;;;;;;;;;;;;;22.30;71.87;94720.84;5177629;27;999;-48
2022/08/15 07:05:54;;;;;;;;;;;;;;;22.26;72.20;94725.13;5177890;27;960;-49
2022/08/15 07:08:33;;;;;;;;;;;;;;;22.22;70.47;94717.41;5174591;27;1840;-48
2022/08/15 07:10:59;;;;;;;;;;;;;;;22.46;72.22;94722.78;5177384;27;1063;-49
2022/08/15 07:13:28;;;;;;;;;;;;;;;22.65;70.87;94723.38;5177718;27;969;-48
2022/08/15 07:15:56;;;;;;;;;;;;;;;22.86;68.39;94715.50;5177557;27;1910;-49
2022/08/15 07:18:25;;;;;;;;;;;;;;;23.06;68.03;94721.31;5177594;27;984;-49
2022/08/15 07:20:58;;;;;;;;;;;;;;;23.32;67.48;94721.69;5177522;27;1051;-49
2022/08/15 07:23:26;;;;;;;;;;;;;;;23.47;63.33;94721.09;5177121;27;1031;-49
2022/08/15 07:25:53;;;;;;;;;;;;;;;23.50;67.13;94724.09;5177554;27;1047;-49
2022/08/15 07:28:24;;;;;;;;;;;;;;;23.45;66.50;94721.31;5177001;27;1003;-48
2022/08/15 07:30:53;;;;;;;;;;;;;;;23.59;65.12;94722.59;5177410;27;1012;-49
2022/08/15 07:33:28;;;;;;;;;;;;;;;23.80;64.97;94722.06;5177041;27;1067;-48
2022/08/15 07:35:58;;;;;;;;;;;;;;;23.85;66.06;94731.16;5177077;27;1992;-49
2022/08/15 07:38:29;;;;;;;;;;;;;;;23.94;65.59;94728.78;5176713;27;1042;-48
2022/08/15 07:41:16;;;;;;;;;;;;;;;23.91;67.79;94734.75;5176838;27;1970;-49
2022/08/15 07:43:42;;;;;;;;;;;;;;;23.78;65.03;94727.75;5171336;27;1249;-49
2022/08/15 07:46:14;;;;;;;;;;;;;;;23.72;66.06;94732.31;5156013;27;951;-48
2022/08/15 07:48:41;;;;;;;;;;;;;;;23.82;66.85;94736.28;5155826;27;1046;-49
2022/08/15 07:51:13;;;;;;;;;;;;;;;23.94;66.56;94734.22;5156088;27;1047;-49
2022/08/15 07:54:03;;;;;;;;;;;;;;;23.90;66.52;94731.22;5155919;27;1026;-48
2022/08/15 07:56:31;;;;;;;;;;;;;;;23.86;64.59;94738.22;5141612;27;1196;-49
2022/08/15 07:59:23;;;;;;;;;;;;;;;23.73;64.86;94744.88;5155695;27;953;-49
2022/08/15 08:01:50;;;;;;;;;;;;;;;23.77;66.19;94737.84;5144245;27;1138;-49
2022/08/15 08:04:21;;;;;;;;;;;;;;;23.80;64.39;94742.00;5155756;27;999;-49
2022/08/15 08:06:56;;;;;;;;;;;;;;;23.94;65.32;94742.41;5155676;27;925;-48
2022/08/15 08:09:30;;;;;;;;;;;;;;;23.93;65.58;94744.34;5155524;27;1139;-48
2022/08/15 08:12:07;;;;;;;;;;;;;;;23.95;64.48;94744.91;5155678;27;944;-48
2022/08/15 08:14:53;;;;;;;;;;;;;;;24.16;65.07;94726.03;5155445;27;2004;-49
2022/08/15 08:17:45;;;;;;;;;;;;;;;24.24;65.02;94727.47;5155080;27;1640;-49
2022/08/15 08:20:11;;;;;;;;;;;;;;;24.16;63.76;94732.31;5150783;27;1528;-48
2022/08/15 08:22:52;;;;;;;;;;;;;;;24.29;65.01;94733.81;5155407;27;1044;-48
2022/08/15 08:25:26;;;;;;;;;;;;;;;24.48;62.83;94730.72;5155511;27;984;-49
2022/08/15 08:28:00;;;;;;;;;;;;;;;24.42;64.43;94729.84;5155093;27;1846;-49
2022/08/15 08:30:30;;;;;;;;;;;;;;;24.56;63.23;94727.53;5155188;27;1055;-49
2022/08/15 08:33:09;;;;;;;;;;;;;;;24.72;64.89;94729.34;5155566;27;1067;-48
2022/08/15 08:35:38;;;;;;;;;;;;;;;24.92;63.42;94728.66;5155140;27;1976;-49
2022/08/15 08:38:07;;;;;;;;;;;;;;;24.96;61.95;94723.50;5155154;27;1103;-48
2022/08/15 08:43:43;;;;;;;;;;;;;;;25.02;64.39;94725.19;5159845;27;1235;-49
2022/08/15 08:46:24;;;;;;;;;;;;;;;25.08;63.92;94726.91;5176058;27;1043;-48
2022/08/15 08:49:06;;;;;;;;;;;;;;;25.14;64.41;94728.56;5175733;27;1020;-48
2022/08/15 08:51:42;;;;;;;;;;;;;;;25.16;62.47;94722.84;5175863;27;991;-49
2022/08/15 08:54:27;;;;;;;;;;;;;;;25.14;63.11;94731.31;5175567;27;1902;-49
2022/08/15 08:56:55;;;;;;;;;;;;;;;25.17;62.46;94721.75;5176017;27;973;-49
2022/08/15 08:59:24;;;;;;;;;;;;;;;25.19;60.31;94713.28;5175652;27;991;-49
2022/08/15 09:01:56;;;;;;;;;;;;;;;25.17;62.31;94708.06;5175737;27;963;-49
2022/08/15 09:04:41;;;;;;;;;;;;;;;25.21;61.87;94711.09;5175752;27;1015;-48
2022/08/15 09:07:07;;;;;;;;;;;;;;;25.26;62.70;94708.44;5177122;27;968;-49
2022/08/15 09:09:39;;;;;;;;;;;;;;;25.44;63.71;94710.75;5179988;27;1024;-49
2022/08/15 09:14:54;;;;;;;;;;;;;;;25.58;61.43;94699.31;5179626;27;1905;-49
2022/08/15 09:17:21;;;;;;;;;;;;;;;25.75;59.92;94702.69;5179916;27;1039;-48
2022/08/15 09:19:51;;;;;;;;;;;;;;;25.70;62.09;94702.66;5179743;27;944;-48
2022/08/15 09:22:17;;;;;;;;;;;;;;;25.62;60.52;94703.16;5179777;27;1000;-48
2022/08/15 09:24:44;;;;;;;;;;;;;;;25.69;60.41;94698.28;5179470;27;1036;-49
2022/08/15 09:27:10;;;;;;;;;;;;;;;25.59;56.33;94690.84;5179552;27;1027;-48
2022/08/15 09:29:43;;;;;;;;;;;;;;;25.72;60.45;94689.50;5179691;27;1039;-49
2022/08/15 09:32:28;;;;;;;;;;;;;;;25.94;59.56;94696.75;5179718;27;992;-49
2022/08/15 09:35:29;;;;;;;;;;;;;;;25.92;59.10;94690.72;5179176;27;2019;-49
2022/08/15 09:37:55;;;;;;;;;;;;;;;26.10;60.28;94691.06;5074328;28;1345;-49
2022/08/15 09:40:32;;;;;;;;;;;;;;;26.09;58.18;94683.13;5157632;27;1086;-49
2022/08/15 09:43:11;;;;;;;;;;;;;;;26.20;59.79;94682.03;5179522;27;952;-49
2022/08/15 09:45:39;;;;;;;;;;;;;;;26.23;59.25;94678.75;5158174;27;1078;-49
2022/08/15 09:48:18;;;;;;;;;;;;;;;25.96;54.40;94678.97;5158522;27;1055;-49
2022/08/15 09:50:53;;;;;;;;;;;;;;;25.81;57.88;94671.47;5158293;27;1031;-49
2022/08/15 09:53:19;;;;;;;;;;;;;;;26.03;57.00;94675.97;5158211;27;1083;-49
2022/08/15 09:55:46;;;;;;;;;;;;;;;26.13;59.72;94672.44;5157927;27;1910;-48
2022/08/15 09:58:14;;;;;;;;;;;;;;;26.23;59.80;94665.03;5158100;27;960;-49
2022/08/15 10:00:41;;;;;;;;;;;;;;;26.26;57.19;94672.72;5158127;27;1023;-49
2022/08/15 10:03:25;;;;;;;;;;;;;;;26.27;57.08;94666.19;5157940;27;1079;-49
2022/08/15 10:06:06;;;;;;;;;;;;;;;26.37;59.77;94670.84;5157933;27;983;-49
2022/08/15 10:08:56;;;;;;;;;;;;;;;26.30;56.37;94664.78;5157953;27;1036;-48
2022/08/15 10:11:32;;;;;;;;;;;;;;;26.25;57.80;94665.59;5147294;27;1793;-49
2022/08/15 10:14:06;;;;;;;;;;;;;;;26.40;59.45;94661.25;5157724;27;1050;-49
2022/08/15 10:16:41;;;;;;;;;;;;;;;26.49;58.95;94657.69;5157868;27;971;-49
2022/08/15 10:19:29;;;;;;;;;;;;;;;26.56;58.92;94659.31;5156578;27;969;-49
2022/08/15 10:21:55;;;;;;;;;;;;;;;26.47;56.13;94657.13;5157958;27;1028;-48
2022/08/15 10:24:21;;;;;;;;;;;;;;;26.38;57.58;94655.22;5157379;27;1091;-48
2022/08/15 10:27:02;;;;;;;;;;;;;;;26.42;56.16;94659.88;5157696;27;1118;-49
2022/08/15 10:29:31;;;;;;;;;;;;;;;26.53;57.28;94657.97;5138987;27;1114;-49
2022/08/15 10:31:59;;;;;;;;;;;;;;;26.62;59.70;94650.88;5157442;27;1083;-49
2022/08/15 10:34:49;;;;;;;;;;;;;;;26.71;58.73;94653.06;5157386;27;1960;-48
2022/08/15 10:37:15;;;;;;;;;;;;;;;26.69;57.58;94650.59;5157472;27;964;-49
2022/08/15 10:39:54;;;;;;;;;;;;;;;26.65;57.76;94649.50;5157344;27;1039;-49
2022/08/15 10:42:44;;;;;;;;;;;;;;;26.71;58.02;94642.09;5157264;27;968;-49
2022/08/15 10:45:11;;;;;;;;;;;;;;;26.75;58.45;94644.03;5175286;27;1157;-49
2022/08/15 10:47:51;;;;;;;;;;;;;;;26.75;56.40;94651.41;5178253;27;1036;-49
2022/08/15 10:50:20;;;;;;;;;;;;;;;26.76;57.40;94642.91;5178362;27;945;-49
2022/08/15 10:53:07;;;;;;;;;;;;;;;26.70;56.24;94645.94;5178437;27;1079;-49
2022/08/15 10:55:34;;;;;;;;;;;;;;;26.76;58.12;94644.84;5177606;27;1905;-49
2022/08/15 10:58:10;;;;;;;;;;;;;;;26.81;55.17;94645.66;5178022;27;953;-48
2022/08/15 11:00:48;;;;;;;;;;;;;;;26.86;57.77;94640.19;5177783;27;1960;-49
2022/08/15 11:03:18;;;;;;;;;;;;;;;26.92;58.40;94645.63;5177720;27;1023;-49
2022/08/15 11:05:55;;;;;;;;;;;;;;;26.96;54.27;94642.06;5177535;27;1051;-49
2022/08/15 11:08:22;;;;;;;;;;;;;;;26.99;56.71;94644.25;5177778;27;1040;-49
2022/08/15 11:10:48;;;;;;;;;;;;;;;27.15;58.28;94653.28;5177499;27;1039;-49
2022/08/15 11:13:16;;;;;;;;;;;;;;;27.24;57.93;94642.56;5177585;27;968;-49
2022/08/15 11:15:55;;;;;;;;;;;;;;;27.18;57.99;94640.94;5177325;27;1993;-49
2022/08/15 11:18:25;;;;;;;;;;;;;;;27.00;58.63;94650.56;5177659;27;1031;-49
2022/08/15 11:20:52;;;;;;;;;;;;;;;26.94;59.10;94641.53;5177453;27;980;-49
2022/08/15 11:23:29;;;;;;;;;;;;;;;27.11;59.35;94652.22;5177385;27;953;-49
2022/08/15 11:25:56;;;;;;;;;;;;;;;27.24;57.97;94645.28;5177241;27;1100;-49
2022/08/15 11:28:25;;;;;;;;;;;;;;;27.27;56.40;94644.78;5177186;27;1118;-49
2022/08/15 11:31:11;;;;;;;;;;;;;;;27.26;55.61;94643.13;5177173;27;976;-49
2022/08/15 11:33:40;;;;;;;;;;;;;;;27.34;55.80;94645.31;5177345;27;1028;-49
2022/08/15 11:36:09;;;;;;;;;;;;;;;27.42;56.03;94647.47;5176895;27;1909;-49
2022/08/15 11:38:36;;;;;;;;;;;;;;;27.42;56.34;94646.66;5176986;27;1012;-49
2022/08/15 11:41:02;;;;;;;;;;;;;;;27.32;53.10;94642.03;5176947;27;1237;-49
2022/08/15 11:43:29;;;;;;;;;;;;;;;27.33;55.32;94638.16;5173253;27;1152;-49
2022/08/15 11:45:56;;;;;;;;;;;;;;;27.33;54.71;94632.69;5156049;27;972;-49
2022/08/15 11:48:31;;;;;;;;;;;;;;;27.31;57.88;94636.81;5155999;27;1031;-49
2022/08/15 11:51:03;;;;;;;;;;;;;;;27.27;56.19;94633.81;5155823;27;975;-49
2022/08/15 11:53:35;;;;;;;;;;;;;;;27.32;54.80;94636.53;5155937;27;1874;-49
2022/08/15 11:56:01;;;;;;;;;;;;;;;27.32;55.43;94633.81;5155809;27;2004;-49
2022/08/15 11:58:30;;;;;;;;;;;;;;;27.33;53.62;94635.44;5156008;27;960;-49
2022/08/15 12:00:57;;;;;;;;;;;;;;;27.30;54.16;94627.78;5155627;27;1114;-49
2022/08/15 12:03:30;;;;;;;;;;;;;;;27.36;52.76;94628.56;5155776;27;1020;-49
2022/08/15 12:06:16;;;;;;;;;;;;;;;27.35;51.76;94630.47;5155556;27;1028;-49
2022/08/15 12:08:43;;;;;;;;;;;;;;;27.25;53.31;94619.53;5155663;27;1032;-49
2022/08/15 12:11:12;;;;;;;;;;;;;;;27.23;54.30;94627.19;5155344;27;1967;-49
2022/08/15 12:13:38;;;;;;;;;;;;;;;27.25;52.78;94619.53;5155635;27;962;-49
2022/08/15 12:16:05;;;;;;;;;;;;;;;27.24;51.78;94615.97;5155211;27;1914;-49
2022/08/15 12:18:33;;;;;;;;;;;;;;;27.14;54.11;94620.63;5155464;27;1213;-49
2022/08/15 12:20:59;;;;;;;;;;;;;;;27.19;55.46;94620.63;5155166;27;1096;-49
2022/08/15 12:23:26;;;;;;;;;;;;;;;27.23;51.21;94617.03;5155300;27;1040;-49
2022/08/15 12:25:53;;;;;;;;;;;;;;;27.23;50.16;94610.75;5155231;27;1048;-49
2022/08/15 12:28:19;;;;;;;;;;;;;;;27.27;52.86;94614.59;5155191;27;881;-49
2022/08/15 12:30:47;;;;;;;;;;;;;;;27.37;53.49;94609.06;5155218;27;1106;-49
2022/08/15 12:33:13;;;;;;;;;;;;;;;27.47;52.12;94602.75;5155022;27;999;-49
2022/08/15 12:35:40;;;;;;;;;;;;;;;27.56;50.56;94602.97;5155330;27;1993;-49
2022/08/15 12:38:06;;;;;;;;;;;;;;;27.61;51.69;94602.94;5155187;27;1072;-48
2022/08/15 12:40:32;;;;;;;;;;;;;;;27.51;53.02;94595.56;5155251;27;1344;-49
2022/08/15 12:42:58;;;;;;;;;;;;;;;27.27;54.77;94600.88;5136289;27;961;-49
2022/08/15 12:45:24;;;;;;;;;;;;;;;27.22;50.64;94595.38;5175061;27;1966;-48
2022/08/15 12:47:50;;;;;;;;;;;;;;;26.98;50.99;94585.00;5175998;27;957;-48
2022/08/15 12:50:16;;;;;;;;;;;;;;;26.93;54.50;94598.72;5176052;27;1013;-48
2022/08/15 12:52:44;;;;;;;;;;;;;;;26.99;54.61;94594.06;5175907;27;952;-49
2022/08/15 12:55:10;;;;;;;;;;;;;;;27.04;53.86;94594.88;5157190;27;1990;-49
2022/08/15 12:57:36;;;;;;;;;;;;;;;27.10;54.30;94595.69;5175678;27;1063;-49
2022/08/15 13:00:03;;;;;;;;;;;;;;;27.15;54.30;94594.84;5175704;27;968;-49
2022/08/15 13:02:30;;;;;;;;;;;;;;;27.11;53.17;94593.75;5175850;27;1040;-49
2022/08/15 13:04:56;;;;;;;;;;;;;;;27.05;53.04;94595.69;5157436;27;1040;-49
2022/08/15 13:07:23;;;;;;;;;;;;;;;27.03;52.86;94589.66;5175480;27;1078;-49
2022/08/15 13:09:50;;;;;;;;;;;;;;;27.09;54.18;94588.56;5175888;27;1039;-48
2022/08/15 13:12:17;;;;;;;;;;;;;;;27.17;52.84;94584.44;5175399;27;1095;-49
2022/08/15 13:14:43;;;;;;;;;;;;;;;27.17;54.16;94587.16;5175630;27;1905;-49
2022/08/15 13:17:12;;;;;;;;;;;;;;;27.10;52.49;94583.88;5175667;27;1050;-49
2022/08/15 13:25:12;;;;;;;;;;;;;;;26.68;56.19;94583.16;5175435;27;1055;-49
2022/08/15 13:27:40;;;;;;;;;;;;;;;26.59;56.66;94579.28;5175042;27;1146;-48